createdAt,value
2022-09-10T00:01:10.793Z,70.03
2022-09-10T00:03:38.397Z,63.05
2022-09-10T00:06:09.214Z,63.13
2022-09-10T00:08:37.484Z,65.53
2022-09-10T00:11:07.517Z,60.85
2022-09-10T00:13:34.934Z,68.75
2022-09-10T00:16:04.932Z,58.15
2022-09-10T00:18:33.577Z,63.28
2022-09-10T00:21:04.575Z,66.78
2022-09-10T00:23:31.694Z,62.65
2022-09-10T00:25:58.786Z,66.35
2022-09-10T00:28:28.139Z,68.47
2022-09-10T00:30:55.855Z,67.93
2022-09-10T00:33:24.298Z,65.90
2022-09-10T00:35:51.727Z,69.38
2022-09-10T00:38:19.112Z,65.32
2022-09-10T00:40:47.251Z,67.97
2022-09-10T00:43:21.620Z,63.05
2022-09-10T00:45:53.329Z,69.65
2022-09-10T00:48:29.346Z,66.25
2022-09-10T00:51:05.981Z,66.50
2022-09-10T00:53:33.981Z,75.57
2022-09-10T00:56:05.307Z,66.82
2022-09-10T00:58:32.770Z,67.80
2022-09-10T01:01:02.965Z,64.93
2022-09-10T01:03:32.822Z,63.90
2022-09-10T01:06:00.829Z,67.43
2022-09-10T01:08:28.027Z,68.72
2022-09-10T01:11:20.892Z,68.20
2022-09-10T01:14:11.135Z,61.38
2022-09-10T01:16:50.675Z,63.45
2022-09-10T01:19:46.855Z,61.57
2022-09-10T01:22:40.545Z,66.28
2022-09-10T01:25:30.901Z,67.65
2022-09-10T01:30:30.958Z,64.95
2022-09-10T01:33:25.539Z,66.95
2022-09-10T01:36:06.321Z,64.95
2022-09-10T01:38:38.662Z,66.75
2022-09-10T01:41:07.757Z,66.38
2022-09-10T01:43:42.313Z,64.82
2022-09-10T01:46:28.423Z,66.07
2022-09-10T01:49:27.144Z,72.20
2022-09-10T01:52:15.373Z,61.67
2022-09-10T01:54:45.969Z,66.35
2022-09-10T01:57:37.971Z,69.20
2022-09-10T02:00:12.782Z,69.03
2022-09-10T02:03:04.192Z,69.63
2022-09-10T02:08:31.351Z,61.05
2022-09-10T02:11:06.498Z,71.43
2022-09-10T02:13:37.051Z,75.15
2022-09-10T02:16:48.148Z,76.03
2022-09-10T02:19:17.071Z,68.45
2022-09-10T02:21:44.454Z,81.60
2022-09-10T02:24:13.222Z,70.03
2022-09-10T02:26:44.216Z,71.72
2022-09-10T02:29:15.091Z,66.87
2022-09-10T02:31:44.126Z,70.45
2022-09-10T02:34:13.463Z,74.63
2022-09-10T02:36:40.810Z,65.78
2022-09-10T02:39:08.494Z,74.22
2022-09-10T02:41:35.622Z,62.15
2022-09-10T02:44:04.339Z,69.13
2022-09-10T02:46:31.586Z,63.17
2022-09-10T02:48:59.152Z,67.00
2022-09-10T02:51:29.569Z,69.32
2022-09-10T02:53:56.571Z,66.85
2022-09-10T02:56:24.014Z,69.75
2022-09-10T02:58:51.306Z,69.15
2022-09-10T03:01:21.394Z,67.63
2022-09-10T03:04:00.970Z,71.00
2022-09-10T03:06:29.800Z,67.25
2022-09-10T03:08:58.572Z,65.07
2022-09-10T03:11:27.698Z,65.13
2022-09-10T03:13:55.831Z,72.82
2022-09-10T03:16:24.536Z,63.45
2022-09-10T03:18:52.599Z,64.75
2022-09-10T03:21:22.183Z,64.90
2022-09-10T03:23:50.813Z,67.00
2022-09-10T03:26:28.424Z,63.00
2022-09-10T03:28:55.991Z,76.80
2022-09-10T03:31:27.507Z,63.83
2022-09-10T03:33:55.035Z,63.28
2022-09-10T03:36:22.997Z,69.72
2022-09-10T03:38:51.087Z,64.95
2022-09-10T03:41:18.503Z,63.70
2022-09-10T03:43:46.651Z,59.92
2022-09-10T03:46:14.971Z,59.30
2022-09-10T03:48:44.054Z,59.13
2022-09-10T03:51:11.593Z,61.72
2022-09-10T03:53:39.760Z,60.65
2022-09-10T03:56:09.294Z,59.65
2022-09-10T03:58:36.579Z,61.80
2022-09-10T04:01:05.222Z,63.35
2022-09-10T04:03:36.451Z,60.58
2022-09-10T04:06:03.691Z,62.22
2022-09-10T04:08:30.921Z,64.18
2022-09-10T04:11:02.880Z,60.72
2022-09-10T04:13:31.896Z,59.70
2022-09-10T04:16:02.817Z,57.92
2022-09-10T04:18:32.273Z,57.60
2022-09-10T04:20:59.374Z,59.17
2022-09-10T04:23:26.592Z,60.83
2022-09-10T04:25:54.659Z,60.10
2022-09-10T04:28:21.726Z,60.78
2022-09-10T04:30:51.413Z,60.70
2022-09-10T04:33:20.501Z,62.00
2022-09-10T04:35:47.742Z,57.95
2022-09-10T04:38:14.850Z,58.92
2022-09-10T04:40:44.573Z,58.65
2022-09-10T04:43:11.943Z,54.95
2022-09-10T04:45:41.460Z,58.42
2022-09-10T04:48:08.728Z,58.45
2022-09-10T04:50:36.508Z,59.05
2022-09-10T04:53:08.503Z,63.40
2022-09-10T04:55:40.405Z,59.08
2022-09-10T04:58:08.293Z,57.50
2022-09-10T05:00:35.465Z,65.78
2022-09-10T05:03:05.489Z,52.90
2022-09-10T05:05:33.824Z,55.47
2022-09-10T05:08:03.571Z,48.20
2022-09-10T05:10:30.736Z,53.20
2022-09-10T05:12:57.916Z,44.55
2022-09-10T05:15:26.370Z,44.70
2022-09-10T05:17:53.777Z,42.08
2022-09-10T05:20:20.933Z,46.50
2022-09-10T05:22:51.110Z,42.53
2022-09-10T05:25:18.596Z,45.83
2022-09-10T05:27:45.861Z,49.20
2022-09-10T05:30:19.095Z,52.70
2022-09-10T05:32:47.609Z,35.78
2022-09-10T05:35:16.117Z,56.65
2022-09-10T05:37:46.045Z,60.08
2022-09-10T05:40:15.257Z,45.20
2022-09-10T05:42:43.153Z,29.10
2022-09-10T05:45:11.066Z,25.35
2022-09-10T05:47:38.654Z,21.30
2022-09-10T05:50:07.637Z,14.65
2022-09-10T05:52:35.621Z,15.27
2022-09-10T05:55:06.571Z,11.82
2022-09-10T05:57:33.736Z,12.35
2022-09-10T06:00:01.871Z,12.68
2022-09-10T06:02:30.673Z,11.13
2022-09-10T06:05:00.861Z,7.15
2022-09-10T06:07:30.113Z,5.30
2022-09-10T06:09:57.910Z,7.00
2022-09-10T06:12:34.776Z,6.50
2022-09-10T06:15:04.068Z,5.80
2022-09-10T06:17:31.370Z,6.07
2022-09-10T06:19:58.611Z,5.57
2022-09-10T06:22:25.934Z,5.75
2022-09-10T06:24:54.183Z,4.53
2022-09-10T06:27:23.652Z,3.20
2022-09-10T06:29:51.934Z,4.28
2022-09-10T06:32:19.515Z,4.05
2022-09-10T06:34:47.579Z,4.22
2022-09-10T06:37:15.041Z,4.18
2022-09-10T06:39:42.527Z,6.75
2022-09-10T06:42:10.501Z,4.85
2022-09-10T06:45:10.170Z,4.00
2022-09-10T06:48:37.806Z,3.92
2022-09-10T06:50:56.259Z,4.30
2022-09-10T06:53:29.422Z,4.55
2022-09-10T06:55:59.770Z,3.88
2022-09-10T06:58:29.145Z,4.25
2022-09-10T07:00:56.400Z,5.60
2022-09-10T07:03:24.697Z,6.47
2022-09-10T07:05:55.980Z,6.38
2022-09-10T07:08:27.516Z,6.47
2022-09-10T07:11:00.431Z,7.07
2022-09-10T07:13:27.680Z,6.65
2022-09-10T07:15:55.643Z,6.00
2022-09-10T07:18:23.663Z,5.00
2022-09-10T07:20:50.891Z,7.03
2022-09-10T07:23:20.570Z,6.05
2022-09-10T07:25:50.578Z,10.13
2022-09-10T07:28:39.183Z,7.75
2022-09-10T07:31:12.114Z,6.68
2022-09-10T07:33:39.574Z,8.00
2022-09-10T07:36:06.949Z,6.32
2022-09-10T07:38:34.459Z,6.07
2022-09-10T07:41:02.514Z,7.47
2022-09-10T07:43:29.965Z,6.18
2022-09-10T07:45:59.081Z,7.57
2022-09-10T07:48:29.459Z,6.07
2022-09-10T07:51:08.303Z,5.70
2022-09-10T07:53:36.251Z,8.27
2022-09-10T07:56:06.784Z,7.10
2022-09-10T07:58:38.455Z,5.95
2022-09-10T08:01:12.683Z,5.13
2022-09-10T08:03:41.241Z,5.97
2022-09-10T08:06:10.338Z,7.28
2022-09-10T08:08:40.360Z,6.68
2022-09-10T08:11:13.544Z,6.90
2022-09-10T08:13:47.616Z,6.13
2022-09-10T08:16:27.098Z,6.13
2022-09-10T08:18:57.543Z,8.35
2022-09-10T08:21:26.057Z,5.57
2022-09-10T08:23:55.145Z,6.95
2022-09-10T08:26:25.585Z,5.93
2022-09-10T08:28:58.190Z,6.85
2022-09-10T08:31:27.034Z,4.93
2022-09-10T08:33:59.617Z,6.65
2022-09-10T08:36:26.745Z,5.53
2022-09-10T08:38:59.819Z,6.20
2022-09-10T08:41:39.461Z,4.65
2022-09-10T08:44:38.733Z,5.97
2022-09-10T08:50:25.175Z,8.32
2022-09-10T08:53:06.012Z,10.75
2022-09-10T08:58:25.473Z,7.60
2022-09-10T09:00:57.914Z,5.75
2022-09-10T09:03:40.774Z,4.13
2022-09-10T09:06:38.285Z,4.57
2022-09-10T09:09:06.335Z,3.70
2022-09-10T09:12:07.532Z,3.13
2022-09-10T09:15:19.870Z,4.53
2022-09-10T09:18:02.722Z,4.32
2022-09-10T09:20:52.152Z,4.47
2022-09-10T09:23:30.520Z,4.50
2022-09-10T09:26:14.007Z,5.20
2022-09-10T09:28:53.018Z,3.80
2022-09-10T09:31:29.821Z,5.07
2022-09-10T09:34:13.495Z,5.07
2022-09-10T09:36:46.373Z,5.55
2022-09-10T09:39:25.328Z,5.43
2022-09-10T09:42:11.343Z,5.88
2022-09-10T09:44:53.856Z,5.60
2022-09-10T09:47:23.984Z,13.55
2022-09-10T09:49:52.416Z,9.57
2022-09-10T09:52:22.714Z,8.30
2022-09-10T09:57:43.253Z,6.50
2022-09-10T10:00:37.330Z,7.97
2022-09-10T10:03:15.337Z,8.07
2022-09-10T10:05:43.254Z,8.40
2022-09-10T10:08:31.345Z,31.05
2022-09-10T10:10:59.377Z,24.55
2022-09-10T10:13:40.048Z,17.27
2022-09-10T10:16:21.745Z,28.75
2022-09-10T10:18:49.612Z,30.08
2022-09-10T10:21:37.070Z,28.50
2022-09-10T10:24:04.491Z,29.83
2022-09-10T10:26:33.801Z,34.03
2022-09-10T10:29:19.812Z,50.53
2022-09-10T10:31:49.852Z,33.45
2022-09-10T10:34:32.722Z,34.60
2022-09-10T10:37:14.658Z,31.85
2022-09-10T10:40:08.651Z,40.88
2022-09-10T10:43:00.022Z,35.63
2022-09-10T10:45:52.900Z,38.15
2022-09-10T10:48:19.965Z,41.10
2022-09-10T10:51:07.371Z,47.38
2022-09-10T10:54:09.857Z,48.13
2022-09-10T10:57:09.857Z,57.75
2022-09-10T10:59:42.731Z,53.15
2022-09-10T11:02:16.064Z,56.00
2022-09-10T11:04:51.779Z,55.05
2022-09-10T11:07:42.776Z,50.92
2022-09-10T11:10:27.831Z,54.47
2022-09-10T11:13:03.576Z,50.55
2022-09-10T11:15:38.145Z,48.13
2022-09-10T11:18:20.419Z,54.30
2022-09-10T11:21:02.708Z,53.15
2022-09-10T11:23:48.297Z,48.47
2022-09-10T11:26:27.068Z,45.28
2022-09-10T11:29:13.541Z,47.38
2022-09-10T11:31:47.667Z,45.25
2022-09-10T11:34:48.024Z,53.75
2022-09-10T11:37:45.291Z,40.42
2022-09-10T11:41:09.339Z,35.10
2022-09-10T11:43:45.584Z,32.55
2022-09-10T11:46:35.783Z,29.90
2022-09-10T11:49:16.459Z,31.70
2022-09-10T11:51:45.574Z,32.60
2022-09-10T11:54:21.331Z,30.75
2022-09-10T11:56:54.561Z,30.85
2022-09-10T11:59:42.604Z,27.25
2022-09-10T12:02:21.844Z,31.55
2022-09-10T12:05:40.891Z,33.22
2022-09-10T12:08:35.894Z,27.23
2022-09-10T12:11:36.996Z,26.77
2022-09-10T12:14:08.940Z,28.33
2022-09-10T12:16:51.900Z,23.98
2022-09-10T12:19:40.301Z,22.85
2022-09-10T12:22:26.472Z,26.27
2022-09-10T12:25:02.466Z,21.92
2022-09-10T12:27:49.336Z,21.83
2022-09-10T12:30:27.739Z,27.35
2022-09-10T12:32:59.465Z,21.73
2022-09-10T12:35:32.945Z,22.83
2022-09-10T12:38:37.211Z,19.92
2022-09-10T12:41:09.262Z,22.75
2022-09-10T12:43:39.730Z,20.30
2022-09-10T12:46:09.835Z,21.98
2022-09-10T12:48:41.807Z,19.75
2022-09-10T12:51:40.752Z,21.27
2022-09-10T12:54:29.489Z,18.88
2022-09-10T12:57:17.461Z,19.27
2022-09-10T13:00:11.872Z,19.48
2022-09-10T13:02:54.351Z,16.88
2022-09-10T13:05:50.805Z,21.98
2022-09-10T13:08:20.817Z,19.58
2022-09-10T13:11:00.093Z,16.42
2022-09-10T13:13:51.940Z,15.68
2022-09-10T13:16:38.465Z,14.90
2022-09-10T13:19:14.776Z,16.65
2022-09-10T13:21:45.029Z,16.33
2022-09-10T13:24:34.704Z,16.95
2022-09-10T13:27:17.006Z,17.42
2022-09-10T13:29:47.611Z,19.88
2022-09-10T13:32:20.668Z,19.58
2022-09-10T13:35:08.300Z,16.45
2022-09-10T13:37:55.656Z,17.33
2022-09-10T13:40:51.034Z,16.15
2022-09-10T13:43:27.180Z,13.75
2022-09-10T13:46:00.718Z,15.75
2022-09-10T13:48:31.946Z,18.58
2022-09-10T13:51:08.510Z,14.95
2022-09-10T13:53:40.725Z,15.35
2022-09-10T13:56:23.095Z,16.05
2022-09-10T13:58:53.778Z,15.57
2022-09-10T14:01:21.136Z,17.20
2022-09-10T14:03:48.676Z,17.77
2022-09-10T14:06:24.385Z,16.35
2022-09-10T14:09:11.967Z,16.48
2022-09-10T14:11:42.783Z,19.40
2022-09-10T14:14:21.347Z,15.40
2022-09-10T14:16:56.297Z,16.35
2022-09-10T14:19:34.737Z,16.83
2022-09-10T14:22:07.154Z,15.35
2022-09-10T14:24:39.827Z,18.83
2022-09-10T14:29:34.384Z,20.08
2022-09-10T14:32:28.613Z,16.80
2022-09-10T14:34:56.127Z,19.65
2022-09-10T14:37:42.114Z,16.58
2022-09-10T14:40:21.139Z,13.85
2022-09-10T14:42:50.315Z,13.52
2022-09-10T14:45:50.146Z,15.45
2022-09-10T14:48:37.218Z,12.40
2022-09-10T14:51:15.987Z,15.73
2022-09-10T14:53:45.173Z,16.40
2022-09-10T14:56:22.594Z,15.63
2022-09-10T14:58:59.302Z,16.20
2022-09-10T15:01:26.943Z,13.35
2022-09-10T15:03:54.391Z,14.98
2022-09-10T15:06:26.165Z,12.13
2022-09-10T15:08:56.401Z,12.98
2022-09-10T15:11:28.205Z,14.93
2022-09-10T15:13:59.655Z,14.48
2022-09-10T15:16:27.789Z,14.05
2022-09-10T15:18:54.863Z,10.70
2022-09-10T15:21:22.774Z,9.30
2022-09-10T15:23:49.832Z,10.13
2022-09-10T15:26:16.985Z,9.45
2022-09-10T15:28:44.170Z,8.85
2022-09-10T15:31:11.585Z,8.20
2022-09-10T15:33:38.967Z,7.68
2022-09-10T15:36:06.614Z,10.57
2022-09-10T15:38:33.894Z,13.95
2022-09-10T15:41:13.150Z,15.18
2022-09-10T15:43:45.538Z,15.15
2022-09-10T15:46:16.147Z,8.25
2022-09-10T15:48:45.299Z,8.07
2022-09-10T15:51:18.224Z,7.15
2022-09-10T15:53:46.717Z,6.97
2022-09-10T15:56:15.157Z,8.40
2022-09-10T15:58:47.822Z,6.82
2022-09-10T16:01:16.577Z,8.68
2022-09-10T16:03:47.010Z,9.43
2022-09-10T16:08:42.376Z,8.13
2022-09-10T16:11:12.050Z,7.88
2022-09-10T16:13:39.946Z,8.57
2022-09-10T16:16:10.230Z,7.65
2022-09-10T16:21:18.653Z,6.45
2022-09-10T16:23:47.643Z,7.95
2022-09-10T16:26:18.382Z,7.07
2022-09-10T16:28:56.574Z,6.68
2022-09-10T16:31:31.799Z,8.52
2022-09-10T16:34:03.583Z,6.97
2022-09-10T16:36:33.291Z,7.18
2022-09-10T16:39:05.339Z,7.68
2022-09-10T16:41:33.339Z,7.95
2022-09-10T16:44:01.031Z,9.63
2022-09-10T16:46:29.120Z,8.20
2022-09-10T16:48:58.812Z,8.35
2022-09-10T16:51:29.102Z,7.37
2022-09-10T16:56:26.022Z,11.80
2022-09-10T16:58:53.420Z,10.05
2022-09-10T17:01:21.763Z,9.48
2022-09-10T17:03:50.206Z,11.32
2022-09-10T17:06:20.127Z,13.63
2022-09-10T17:08:48.096Z,13.00
2022-09-10T17:11:17.711Z,12.75
2022-09-10T17:13:46.396Z,13.02
2022-09-10T17:16:29.780Z,11.57
2022-09-10T17:19:07.305Z,12.10
2022-09-10T17:21:36.292Z,9.63
2022-09-10T17:24:05.338Z,14.38
2022-09-10T17:26:33.513Z,14.38
2022-09-10T17:29:05.107Z,11.77
2022-09-10T17:31:33.650Z,12.00
2022-09-10T17:34:01.375Z,12.68
2022-09-10T17:36:28.692Z,12.23
2022-09-10T17:38:56.742Z,11.57
2022-09-10T17:41:24.958Z,11.45
2022-09-10T17:43:52.151Z,13.15
2022-09-10T17:46:21.768Z,13.73
2022-09-10T17:48:50.101Z,14.73
2022-09-10T17:51:20.727Z,12.23
2022-09-10T17:53:48.010Z,14.63
2022-09-10T17:56:19.279Z,12.50
2022-09-10T17:58:50.010Z,14.32
2022-09-10T18:01:27.928Z,11.43
2022-09-10T18:03:55.927Z,18.58
2022-09-10T18:06:25.537Z,11.27
2022-09-10T18:08:53.376Z,11.70
2022-09-10T18:11:27.356Z,10.48
2022-09-10T18:13:56.106Z,8.52
2022-09-10T18:16:27.125Z,12.38
2022-09-10T18:18:59.786Z,9.95
2022-09-10T18:21:27.346Z,12.55
2022-09-10T18:24:05.911Z,10.73
2022-09-10T18:26:36.365Z,9.13
2022-09-10T18:29:10.548Z,9.10
2022-09-10T18:31:40.189Z,10.57
2022-09-10T18:34:11.056Z,10.98
2022-09-10T18:36:38.261Z,12.18
2022-09-10T18:39:07.192Z,9.13
2022-09-10T18:41:38.389Z,8.13
2022-09-10T18:44:10.634Z,9.85
2022-09-10T18:46:38.225Z,11.07
2022-09-10T18:49:05.853Z,9.70
2022-09-10T18:51:33.217Z,10.73
2022-09-10T18:54:01.612Z,8.93
2022-09-10T18:56:31.832Z,11.52
2022-09-10T18:59:09.387Z,11.80
2022-09-10T19:01:38.939Z,11.88
2022-09-10T19:04:07.626Z,11.90
2022-09-10T19:06:38.525Z,10.27
2022-09-10T19:09:08.465Z,11.57
2022-09-10T19:11:38.697Z,12.43
2022-09-10T19:14:09.113Z,12.13
2022-09-10T19:16:36.792Z,12.32
2022-09-10T19:19:06.860Z,11.02
2022-09-10T19:21:36.322Z,11.73
2022-09-10T19:24:04.593Z,12.10
2022-09-10T19:26:34.721Z,13.13
2022-09-10T19:29:03.019Z,11.98
2022-09-10T19:31:33.283Z,12.30
2022-09-10T19:34:03.818Z,11.25
2022-09-10T19:36:33.858Z,11.80
2022-09-10T19:39:05.705Z,13.70
2022-09-10T19:41:34.331Z,11.15
2022-09-10T19:44:02.709Z,12.27
2022-09-10T19:46:30.775Z,13.82
2022-09-10T19:48:59.981Z,12.05
2022-09-10T19:51:30.069Z,11.43
2022-09-10T19:53:58.368Z,12.55
2022-09-10T19:56:29.627Z,15.95
2022-09-10T19:58:56.945Z,12.02
2022-09-10T20:01:33.110Z,11.63
2022-09-10T20:04:01.966Z,11.57
2022-09-10T20:06:30.138Z,14.57
2022-09-10T20:08:57.591Z,16.42
2022-09-10T20:11:28.556Z,14.13
2022-09-10T20:14:15.933Z,12.52
2022-09-10T20:16:45.461Z,15.98
2022-09-10T20:19:18.525Z,15.63
2022-09-10T20:21:46.707Z,12.45
2022-09-10T20:24:14.632Z,11.95
2022-09-10T20:26:43.944Z,12.07
2022-09-10T20:29:13.678Z,16.25
2022-09-10T20:31:42.378Z,13.98
2022-09-10T20:34:19.760Z,12.45
2022-09-10T20:36:48.239Z,12.50
2022-09-10T20:39:17.437Z,18.60
2022-09-10T20:41:44.886Z,12.52
2022-09-10T20:44:14.728Z,13.35
2022-09-10T20:46:42.821Z,12.65
2022-09-10T20:49:11.728Z,12.68
2022-09-10T20:51:40.498Z,13.27
2022-09-10T20:54:15.943Z,12.73
2022-09-10T20:56:43.936Z,11.38
2022-09-10T20:59:16.287Z,16.27
2022-09-10T21:01:46.147Z,14.35
2022-09-10T21:04:14.077Z,12.95
2022-09-10T21:06:41.421Z,13.73
2022-09-10T21:09:09.197Z,13.57
2022-09-10T21:11:36.702Z,12.63
2022-09-10T21:14:06.161Z,11.38
2022-09-10T21:16:39.146Z,13.77
2022-09-10T21:19:09.866Z,11.63
2022-09-10T21:21:39.207Z,13.40
2022-09-10T21:24:10.784Z,12.75
2022-09-10T21:26:40.163Z,14.68
2022-09-10T21:29:11.670Z,12.93
2022-09-10T21:31:39.462Z,16.30
2022-09-10T21:34:07.015Z,16.05
2022-09-10T21:36:37.723Z,16.77
2022-09-10T21:39:07.452Z,14.45
2022-09-10T21:41:35.714Z,14.48
2022-09-10T21:44:05.643Z,16.90
2022-09-10T21:46:33.623Z,12.27
2022-09-10T21:49:00.894Z,16.50
2022-09-10T21:51:28.801Z,17.25
2022-09-10T21:53:57.284Z,15.85
2022-09-10T21:56:26.511Z,16.85
2022-09-10T21:58:56.004Z,16.02
2022-09-10T22:01:25.960Z,18.30
2022-09-10T22:03:55.466Z,18.52
2022-09-10T22:06:27.651Z,15.93
2022-09-10T22:09:00.574Z,19.23
2022-09-10T22:11:37.446Z,17.27
2022-09-10T22:14:07.813Z,18.05
2022-09-10T22:19:07.089Z,17.60
2022-09-10T22:21:36.276Z,19.20
2022-09-10T22:24:03.563Z,23.55
2022-09-10T22:26:30.563Z,21.63
2022-09-10T22:29:03.584Z,21.63
2022-09-10T22:31:33.364Z,23.77
2022-09-10T22:34:06.206Z,24.58
2022-09-10T22:36:35.977Z,25.30
2022-09-10T22:39:04.957Z,29.63
2022-09-10T22:41:34.255Z,28.00
2022-09-10T22:44:01.973Z,29.00
2022-09-10T22:46:29.959Z,29.38
2022-09-10T22:48:57.564Z,31.85
2022-09-10T22:51:28.096Z,28.60
2022-09-10T22:53:56.793Z,31.23
2022-09-10T22:56:26.344Z,30.80
2022-09-10T22:58:54.843Z,30.93
2022-09-10T23:01:31.297Z,30.05
2022-09-10T23:04:00.521Z,27.80
2022-09-10T23:06:30.724Z,30.23
2022-09-10T23:09:04.509Z,29.67
2022-09-10T23:11:32.856Z,34.20
2022-09-10T23:14:02.683Z,32.72
2022-09-10T23:16:38.346Z,32.92
2022-09-10T23:19:09.762Z,31.52
2022-09-10T23:21:39.694Z,30.63
2022-09-10T23:24:10.225Z,29.38
2022-09-10T23:26:37.397Z,30.60
2022-09-10T23:29:05.823Z,30.25
2022-09-10T23:31:35.867Z,30.38
2022-09-10T23:34:10.043Z,32.53
2022-09-10T23:36:39.852Z,31.45
2022-09-10T23:39:11.404Z,35.80
2022-09-10T23:41:39.660Z,28.98
2022-09-10T23:44:07.207Z,31.08
2022-09-10T23:46:35.656Z,28.45
2022-09-10T23:49:03.955Z,33.25
2022-09-10T23:51:32.215Z,32.13
2022-09-10T23:53:59.706Z,34.42
2022-09-10T23:56:28.580Z,30.38
2022-09-10T23:58:59.526Z,32.30
